sensor_id;sensor_type;location;lat;lon;timestamp;P1;durP1;ratioP1;P2;durP2;ratioP2
74920;SDS011;63483;47.384;8.860;2023-05-27T00:00:59;15.17;;;8.50;;
74920;SDS011;63483;47.384;8.860;2023-05-27T00:03:25;10.30;;;7.27;;
74920;SDS011;63483;47.384;8.860;2023-05-27T00:05:50;8.40;;;6.50;;
74920;SDS011;63483;47.384;8.860;2023-05-27T00:08:16;14.70;;;9.05;;
74920;SDS011;63483;47.384;8.860;2023-05-27T00:10:41;17.80;;;11.27;;
74920;SDS011;63483;47.384;8.860;2023-05-27T00:13:06;13.60;;;9.00;;
74920;SDS011;63483;47.384;8.860;2023-05-27T00:15:32;12.87;;;9.13;;
74920;SDS011;63483;47.384;8.860;2023-05-27T00:17:58;12.40;;;8.53;;
74920;SDS011;63483;47.384;8.860;2023-05-27T00:20:25;13.27;;;9.55;;
74920;SDS011;63483;47.384;8.860;2023-05-27T00:22:50;8.73;;;6.35;;
74920;SDS011;63483;47.384;8.860;2023-05-27T00:25:16;11.17;;;7.33;;
74920;SDS011;63483;47.384;8.860;2023-05-27T00:27:45;11.32;;;6.70;;
74920;SDS011;63483;47.384;8.860;2023-05-27T00:30:11;9.43;;;6.60;;
74920;SDS011;63483;47.384;8.860;2023-05-27T00:32:36;10.23;;;6.70;;
74920;SDS011;63483;47.384;8.860;2023-05-27T00:35:01;12.97;;;8.50;;
74920;SDS011;63483;47.384;8.860;2023-05-27T00:37:27;18.10;;;10.17;;
74920;SDS011;63483;47.384;8.860;2023-05-27T00:39:52;18.58;;;9.18;;
74920;SDS011;63483;47.384;8.860;2023-05-27T00:42:17;16.03;;;9.03;;
74920;SDS011;63483;47.384;8.860;2023-05-27T00:44:44;12.03;;;8.10;;
74920;SDS011;63483;47.384;8.860;2023-05-27T00:47:09;13.38;;;7.65;;
74920;SDS011;63483;47.384;8.860;2023-05-27T00:49:35;14.53;;;8.60;;
74920;SDS011;63483;47.384;8.860;2023-05-27T00:52:01;13.27;;;9.20;;
74920;SDS011;63483;47.384;8.860;2023-05-27T00:54:26;15.70;;;10.00;;
74920;SDS011;63483;47.384;8.860;2023-05-27T00:56:52;11.57;;;8.13;;
74920;SDS011;63483;47.384;8.860;2023-05-27T00:59:21;10.35;;;7.40;;
74920;SDS011;63483;47.384;8.860;2023-05-27T01:01:49;11.18;;;8.00;;
74920;SDS011;63483;47.384;8.860;2023-05-27T01:04:15;10.93;;;7.60;;
74920;SDS011;63483;47.384;8.860;2023-05-27T01:09:40;11.55;;;6.70;;
74920;SDS011;63483;47.384;8.860;2023-05-27T01:15:26;14.82;;;8.32;;
74920;SDS011;63483;47.384;8.860;2023-05-27T01:17:55;13.38;;;8.20;;
74920;SDS011;63483;47.384;8.860;2023-05-27T01:20:21;8.73;;;6.57;;
74920;SDS011;63483;47.384;8.860;2023-05-27T01:22:47;10.40;;;7.68;;
74920;SDS011;63483;47.384;8.860;2023-05-27T01:25:17;14.25;;;9.07;;
74920;SDS011;63483;47.384;8.860;2023-05-27T01:27:44;12.93;;;7.65;;
74920;SDS011;63483;47.384;8.860;2023-05-27T01:30:10;11.03;;;7.50;;
74920;SDS011;63483;47.384;8.860;2023-05-27T01:38:04;18.90;;;10.68;;
74920;SDS011;63483;47.384;8.860;2023-05-27T01:40:32;39.20;;;19.27;;
74920;SDS011;63483;47.384;8.860;2023-05-27T01:42:59;16.42;;;9.27;;
74920;SDS011;63483;47.384;8.860;2023-05-27T01:45:25;12.43;;;7.15;;
74920;SDS011;63483;47.384;8.860;2023-05-27T01:47:51;9.73;;;6.60;;
74920;SDS011;63483;47.384;8.860;2023-05-27T01:50:16;11.98;;;7.05;;
74920;SDS011;63483;47.384;8.860;2023-05-27T01:52:42;11.03;;;5.80;;
74920;SDS011;63483;47.384;8.860;2023-05-27T01:55:07;8.40;;;5.53;;
74920;SDS011;63483;47.384;8.860;2023-05-27T01:57:33;8.75;;;6.30;;
74920;SDS011;63483;47.384;8.860;2023-05-27T02:00:00;11.32;;;6.40;;
74920;SDS011;63483;47.384;8.860;2023-05-27T02:02:26;9.73;;;6.30;;
74920;SDS011;63483;47.384;8.860;2023-05-27T02:04:51;9.53;;;5.70;;
74920;SDS011;63483;47.384;8.860;2023-05-27T02:07:17;8.70;;;5.80;;
74920;SDS011;63483;47.384;8.860;2023-05-27T02:09:43;9.32;;;5.88;;
74920;SDS011;63483;47.384;8.860;2023-05-27T02:12:10;8.60;;;5.80;;
74920;SDS011;63483;47.384;8.860;2023-05-27T02:14:37;9.23;;;6.20;;
74920;SDS011;63483;47.384;8.860;2023-05-27T02:17:04;10.23;;;5.75;;
74920;SDS011;63483;47.384;8.860;2023-05-27T02:19:30;9.40;;;5.50;;
74920;SDS011;63483;47.384;8.860;2023-05-27T02:21:55;10.13;;;5.97;;
74920;SDS011;63483;47.384;8.860;2023-05-27T02:24:20;9.03;;;5.37;;
74920;SDS011;63483;47.384;8.860;2023-05-27T02:26:46;9.50;;;5.43;;
74920;SDS011;63483;47.384;8.860;2023-05-27T02:29:11;8.60;;;5.50;;
74920;SDS011;63483;47.384;8.860;2023-05-27T02:31:36;8.93;;;5.90;;
74920;SDS011;63483;47.384;8.860;2023-05-27T02:34:01;8.20;;;5.90;;
74920;SDS011;63483;47.384;8.860;2023-05-27T02:36:27;8.00;;;5.53;;
74920;SDS011;63483;47.384;8.860;2023-05-27T02:38:52;10.60;;;6.27;;
74920;SDS011;63483;47.384;8.860;2023-05-27T02:41:18;9.30;;;5.73;;
74920;SDS011;63483;47.384;8.860;2023-05-27T02:43:43;9.33;;;6.37;;
74920;SDS011;63483;47.384;8.860;2023-05-27T02:46:09;11.95;;;5.75;;
74920;SDS011;63483;47.384;8.860;2023-05-27T02:48:34;10.97;;;6.13;;
74920;SDS011;63483;47.384;8.860;2023-05-27T02:50:59;9.03;;;5.77;;
74920;SDS011;63483;47.384;8.860;2023-05-27T02:53:25;8.20;;;5.97;;
74920;SDS011;63483;47.384;8.860;2023-05-27T02:55:50;10.33;;;6.13;;
74920;SDS011;63483;47.384;8.860;2023-05-27T02:58:17;9.05;;;5.10;;
74920;SDS011;63483;47.384;8.860;2023-05-27T03:00:42;8.60;;;5.63;;
74920;SDS011;63483;47.384;8.860;2023-05-27T03:03:08;8.88;;;6.25;;
74920;SDS011;63483;47.384;8.860;2023-05-27T03:05:34;9.23;;;6.30;;
74920;SDS011;63483;47.384;8.860;2023-05-27T03:08:00;9.50;;;6.60;;
74920;SDS011;63483;47.384;8.860;2023-05-27T03:10:26;9.83;;;6.03;;
74920;SDS011;63483;47.384;8.860;2023-05-27T03:12:53;7.68;;;5.63;;
74920;SDS011;63483;47.384;8.860;2023-05-27T03:15:22;9.10;;;5.80;;
74920;SDS011;63483;47.384;8.860;2023-05-27T03:17:47;9.97;;;5.97;;
74920;SDS011;63483;47.384;8.860;2023-05-27T03:20:13;7.95;;;5.25;;
74920;SDS011;63483;47.384;8.860;2023-05-27T03:22:38;8.90;;;5.67;;
74920;SDS011;63483;47.384;8.860;2023-05-27T03:25:03;10.20;;;5.87;;
74920;SDS011;63483;47.384;8.860;2023-05-27T03:27:30;8.95;;;5.72;;
74920;SDS011;63483;47.384;8.860;2023-05-27T03:29:55;10.70;;;6.03;;
74920;SDS011;63483;47.384;8.860;2023-05-27T03:32:21;8.90;;;6.33;;
74920;SDS011;63483;47.384;8.860;2023-05-27T03:34:46;10.13;;;6.00;;
74920;SDS011;63483;47.384;8.860;2023-05-27T03:37:12;10.63;;;6.60;;
74920;SDS011;63483;47.384;8.860;2023-05-27T03:39:39;8.55;;;5.55;;
74920;SDS011;63483;47.384;8.860;2023-05-27T03:42:05;10.50;;;6.57;;
74920;SDS011;63483;47.384;8.860;2023-05-27T03:44:30;8.38;;;5.80;;
74920;SDS011;63483;47.384;8.860;2023-05-27T03:46:56;9.07;;;5.80;;
74920;SDS011;63483;47.384;8.860;2023-05-27T03:49:21;8.45;;;5.93;;
74920;SDS011;63483;47.384;8.860;2023-05-27T03:51:47;14.37;;;9.20;;
74920;SDS011;63483;47.384;8.860;2023-05-27T03:54:12;11.70;;;6.93;;
74920;SDS011;63483;47.384;8.860;2023-05-27T03:56:37;9.90;;;6.30;;
74920;SDS011;63483;47.384;8.860;2023-05-27T03:59:03;7.50;;;5.50;;
74920;SDS011;63483;47.384;8.860;2023-05-27T04:01:28;9.13;;;6.20;;
74920;SDS011;63483;47.384;8.860;2023-05-27T04:03:54;9.98;;;6.22;;
74920;SDS011;63483;47.384;8.860;2023-05-27T04:06:20;10.47;;;5.97;;
74920;SDS011;63483;47.384;8.860;2023-05-27T04:08:45;8.60;;;5.70;;
74920;SDS011;63483;47.384;8.860;2023-05-27T04:11:11;7.97;;;5.65;;
74920;SDS011;63483;47.384;8.860;2023-05-27T04:13:37;8.13;;;5.40;;
74920;SDS011;63483;47.384;8.860;2023-05-27T04:16:03;9.75;;;5.72;;
74920;SDS011;63483;47.384;8.860;2023-05-27T04:18:29;7.70;;;5.57;;
74920;SDS011;63483;47.384;8.860;2023-05-27T04:20:54;9.43;;;5.60;;
74920;SDS011;63483;47.384;8.860;2023-05-27T04:23:19;8.87;;;6.10;;
74920;SDS011;63483;47.384;8.860;2023-05-27T04:25:45;8.93;;;6.33;;
74920;SDS011;63483;47.384;8.860;2023-05-27T04:28:11;9.60;;;6.80;;
74920;SDS011;63483;47.384;8.860;2023-05-27T04:30:36;10.63;;;6.20;;
74920;SDS011;63483;47.384;8.860;2023-05-27T04:33:02;8.43;;;5.83;;
74920;SDS011;63483;47.384;8.860;2023-05-27T04:35:28;8.05;;;5.93;;
74920;SDS011;63483;47.384;8.860;2023-05-27T04:37:56;9.32;;;5.95;;
74920;SDS011;63483;47.384;8.860;2023-05-27T04:40:23;9.67;;;5.73;;
74920;SDS011;63483;47.384;8.860;2023-05-27T04:42:49;9.70;;;6.68;;
74920;SDS011;63483;47.384;8.860;2023-05-27T04:45:15;10.63;;;6.60;;
74920;SDS011;63483;47.384;8.860;2023-05-27T04:47:41;8.50;;;5.95;;
74920;SDS011;63483;47.384;8.860;2023-05-27T04:50:08;10.07;;;5.97;;
74920;SDS011;63483;47.384;8.860;2023-05-27T04:52:35;10.73;;;7.50;;
74920;SDS011;63483;47.384;8.860;2023-05-27T04:55:04;10.30;;;6.00;;
74920;SDS011;63483;47.384;8.860;2023-05-27T04:57:29;10.18;;;6.82;;
74920;SDS011;63483;47.384;8.860;2023-05-27T04:59:55;11.53;;;6.80;;
74920;SDS011;63483;47.384;8.860;2023-05-27T05:02:29;9.50;;;6.63;;
74920;SDS011;63483;47.384;8.860;2023-05-27T05:05:06;11.45;;;7.57;;
74920;SDS011;63483;47.384;8.860;2023-05-27T05:07:39;12.07;;;7.88;;
74920;SDS011;63483;47.384;8.860;2023-05-27T05:10:12;10.43;;;6.27;;
74920;SDS011;63483;47.384;8.860;2023-05-27T05:12:38;8.77;;;5.72;;
74920;SDS011;63483;47.384;8.860;2023-05-27T05:15:04;8.95;;;5.47;;
74920;SDS011;63483;47.384;8.860;2023-05-27T05:17:30;8.60;;;6.10;;
74920;SDS011;63483;47.384;8.860;2023-05-27T05:19:55;8.60;;;5.70;;
74920;SDS011;63483;47.384;8.860;2023-05-27T05:22:21;9.70;;;6.53;;
74920;SDS011;63483;47.384;8.860;2023-05-27T05:24:49;10.50;;;6.35;;
74920;SDS011;63483;47.384;8.860;2023-05-27T05:27:15;10.07;;;6.27;;
74920;SDS011;63483;47.384;8.860;2023-05-27T05:29:40;10.23;;;6.47;;
74920;SDS011;63483;47.384;8.860;2023-05-27T05:32:06;8.80;;;6.67;;
74920;SDS011;63483;47.384;8.860;2023-05-27T05:34:32;8.40;;;6.10;;
74920;SDS011;63483;47.384;8.860;2023-05-27T05:36:57;12.33;;;7.50;;
74920;SDS011;63483;47.384;8.860;2023-05-27T05:39:23;8.90;;;6.33;;
74920;SDS011;63483;47.384;8.860;2023-05-27T05:41:48;10.03;;;6.40;;
74920;SDS011;63483;47.384;8.860;2023-05-27T05:44:14;11.50;;;6.70;;
74920;SDS011;63483;47.384;8.860;2023-05-27T05:46:40;12.13;;;7.15;;
74920;SDS011;63483;47.384;8.860;2023-05-27T05:49:06;12.30;;;7.40;;
74920;SDS011;63483;47.384;8.860;2023-05-27T05:51:31;11.97;;;7.67;;
74920;SDS011;63483;47.384;8.860;2023-05-27T05:53:57;11.27;;;7.70;;
74920;SDS011;63483;47.384;8.860;2023-05-27T05:56:23;10.10;;;7.20;;
74920;SDS011;63483;47.384;8.860;2023-05-27T05:58:50;14.48;;;7.50;;
74920;SDS011;63483;47.384;8.860;2023-05-27T06:01:16;12.10;;;7.40;;
74920;SDS011;63483;47.384;8.860;2023-05-27T06:03:41;12.87;;;8.17;;
74920;SDS011;63483;47.384;8.860;2023-05-27T06:06:07;12.10;;;7.97;;
74920;SDS011;63483;47.384;8.860;2023-05-27T06:08:33;12.60;;;8.10;;
74920;SDS011;63483;47.384;8.860;2023-05-27T06:10:58;12.13;;;7.20;;
74920;SDS011;63483;47.384;8.860;2023-05-27T06:13:23;14.40;;;7.87;;
74920;SDS011;63483;47.384;8.860;2023-05-27T06:15:49;11.97;;;7.80;;
74920;SDS011;63483;47.384;8.860;2023-05-27T06:18:14;11.50;;;7.68;;
74920;SDS011;63483;47.384;8.860;2023-05-27T06:20:39;10.37;;;7.23;;
74920;SDS011;63483;47.384;8.860;2023-05-27T06:23:05;12.40;;;7.70;;
74920;SDS011;63483;47.384;8.860;2023-05-27T06:25:31;10.70;;;7.03;;
74920;SDS011;63483;47.384;8.860;2023-05-27T06:27:57;12.73;;;7.53;;
74920;SDS011;63483;47.384;8.860;2023-05-27T06:30:22;12.13;;;8.07;;
74920;SDS011;63483;47.384;8.860;2023-05-27T06:32:47;13.33;;;7.47;;
74920;SDS011;63483;47.384;8.860;2023-05-27T06:35:13;13.43;;;8.23;;
74920;SDS011;63483;47.384;8.860;2023-05-27T06:37:38;13.88;;;7.80;;
74920;SDS011;63483;47.384;8.860;2023-05-27T06:40:04;13.33;;;8.20;;
74920;SDS011;63483;47.384;8.860;2023-05-27T06:42:29;11.13;;;7.53;;
74920;SDS011;63483;47.384;8.860;2023-05-27T06:44:55;12.18;;;7.93;;
74920;SDS011;63483;47.384;8.860;2023-05-27T06:47:20;12.87;;;7.90;;
74920;SDS011;63483;47.384;8.860;2023-05-27T06:49:46;11.53;;;8.17;;
74920;SDS011;63483;47.384;8.860;2023-05-27T06:52:11;12.73;;;8.18;;
74920;SDS011;63483;47.384;8.860;2023-05-27T06:54:37;14.23;;;8.97;;
74920;SDS011;63483;47.384;8.860;2023-05-27T06:57:02;15.80;;;8.50;;
74920;SDS011;63483;47.384;8.860;2023-05-27T06:59:28;11.13;;;8.02;;
74920;SDS011;63483;47.384;8.860;2023-05-27T07:01:54;11.00;;;7.53;;
74920;SDS011;63483;47.384;8.860;2023-05-27T07:04:21;13.65;;;8.88;;
74920;SDS011;63483;47.384;8.860;2023-05-27T07:06:46;15.13;;;8.13;;
74920;SDS011;63483;47.384;8.860;2023-05-27T07:09:12;13.50;;;8.27;;
74920;SDS011;63483;47.384;8.860;2023-05-27T07:11:38;15.15;;;8.00;;
74920;SDS011;63483;47.384;8.860;2023-05-27T07:14:04;14.13;;;8.50;;
74920;SDS011;63483;47.384;8.860;2023-05-27T07:16:30;12.50;;;8.40;;
74920;SDS011;63483;47.384;8.860;2023-05-27T07:18:55;11.67;;;7.70;;
74920;SDS011;63483;47.384;8.860;2023-05-27T07:21:20;12.17;;;7.93;;
74920;SDS011;63483;47.384;8.860;2023-05-27T07:23:46;10.37;;;7.27;;
74920;SDS011;63483;47.384;8.860;2023-05-27T07:26:11;13.73;;;8.27;;
74920;SDS011;63483;47.384;8.860;2023-05-27T07:28:36;14.83;;;8.37;;
74920;SDS011;63483;47.384;8.860;2023-05-27T07:31:02;13.00;;;8.50;;
74920;SDS011;63483;47.384;8.860;2023-05-27T07:33:28;13.07;;;8.45;;
74920;SDS011;63483;47.384;8.860;2023-05-27T07:35:53;12.33;;;9.00;;
74920;SDS011;63483;47.384;8.860;2023-05-27T07:38:19;13.63;;;8.70;;
74920;SDS011;63483;47.384;8.860;2023-05-27T07:40:44;12.45;;;8.23;;
74920;SDS011;63483;47.384;8.860;2023-05-27T07:43:10;12.90;;;7.20;;
74920;SDS011;63483;47.384;8.860;2023-05-27T07:45:36;11.73;;;8.53;;
74920;SDS011;63483;47.384;8.860;2023-05-27T07:48:01;15.60;;;9.40;;
74920;SDS011;63483;47.384;8.860;2023-05-27T07:50:26;13.40;;;8.63;;
74920;SDS011;63483;47.384;8.860;2023-05-27T07:52:52;12.00;;;8.53;;
74920;SDS011;63483;47.384;8.860;2023-05-27T07:55:17;14.40;;;8.93;;
74920;SDS011;63483;47.384;8.860;2023-05-27T07:57:43;16.80;;;9.30;;
74920;SDS011;63483;47.384;8.860;2023-05-27T08:00:09;12.18;;;8.38;;
74920;SDS011;63483;47.384;8.860;2023-05-27T08:02:35;14.23;;;9.60;;
74920;SDS011;63483;47.384;8.860;2023-05-27T08:05:01;12.43;;;8.27;;
74920;SDS011;63483;47.384;8.860;2023-05-27T08:07:27;15.40;;;9.68;;
74920;SDS011;63483;47.384;8.860;2023-05-27T08:09:52;13.40;;;9.57;;
74920;SDS011;63483;47.384;8.860;2023-05-27T08:12:18;12.57;;;8.87;;
74920;SDS011;63483;47.384;8.860;2023-05-27T08:14:43;13.10;;;9.40;;
74920;SDS011;63483;47.384;8.860;2023-05-27T08:17:09;12.27;;;8.98;;
74920;SDS011;63483;47.384;8.860;2023-05-27T08:19:35;13.73;;;9.17;;
74920;SDS011;63483;47.384;8.860;2023-05-27T08:22:00;14.80;;;9.60;;
74920;SDS011;63483;47.384;8.860;2023-05-27T08:24:27;13.05;;;8.77;;
74920;SDS011;63483;47.384;8.860;2023-05-27T08:26:53;13.73;;;8.90;;
74920;SDS011;63483;47.384;8.860;2023-05-27T08:29:18;14.77;;;8.90;;
74920;SDS011;63483;47.384;8.860;2023-05-27T08:31:44;14.57;;;8.87;;
74920;SDS011;63483;47.384;8.860;2023-05-27T08:34:10;14.68;;;9.00;;
74920;SDS011;63483;47.384;8.860;2023-05-27T08:36:35;14.63;;;9.53;;
74920;SDS011;63483;47.384;8.860;2023-05-27T08:39:01;13.33;;;9.37;;
74920;SDS011;63483;47.384;8.860;2023-05-27T08:41:27;12.50;;;8.85;;
74920;SDS011;63483;47.384;8.860;2023-05-27T08:43:53;13.60;;;9.10;;
74920;SDS011;63483;47.384;8.860;2023-05-27T08:46:20;15.93;;;9.52;;
74920;SDS011;63483;47.384;8.860;2023-05-27T08:48:47;13.52;;;9.43;;
74920;SDS011;63483;47.384;8.860;2023-05-27T08:51:14;12.80;;;9.75;;
74920;SDS011;63483;47.384;8.860;2023-05-27T08:53:43;14.63;;;9.13;;
74920;SDS011;63483;47.384;8.860;2023-05-27T08:56:09;12.23;;;9.10;;
74920;SDS011;63483;47.384;8.860;2023-05-27T08:58:37;12.68;;;9.55;;
74920;SDS011;63483;47.384;8.860;2023-05-27T09:01:04;15.97;;;8.90;;
74920;SDS011;63483;47.384;8.860;2023-05-27T09:03:30;14.43;;;9.30;;
74920;SDS011;63483;47.384;8.860;2023-05-27T09:05:55;15.80;;;9.87;;
74920;SDS011;63483;47.384;8.860;2023-05-27T09:08:21;13.85;;;8.40;;
74920;SDS011;63483;47.384;8.860;2023-05-27T09:10:48;13.87;;;8.97;;
74920;SDS011;63483;47.384;8.860;2023-05-27T09:13:13;14.40;;;10.27;;
74920;SDS011;63483;47.384;8.860;2023-05-27T09:15:40;15.23;;;10.67;;
74920;SDS011;63483;47.384;8.860;2023-05-27T09:18:06;14.77;;;9.43;;
74920;SDS011;63483;47.384;8.860;2023-05-27T09:20:31;13.83;;;9.67;;
74920;SDS011;63483;47.384;8.860;2023-05-27T09:22:57;14.33;;;9.07;;
74920;SDS011;63483;47.384;8.860;2023-05-27T09:25:24;17.17;;;10.05;;
74920;SDS011;63483;47.384;8.860;2023-05-27T09:27:50;13.23;;;9.55;;
74920;SDS011;63483;47.384;8.860;2023-05-27T09:30:18;15.43;;;10.47;;
74920;SDS011;63483;47.384;8.860;2023-05-27T09:32:45;14.25;;;8.88;;
74920;SDS011;63483;47.384;8.860;2023-05-27T09:35:11;13.90;;;10.27;;
74920;SDS011;63483;47.384;8.860;2023-05-27T09:37:38;18.10;;;9.40;;
74920;SDS011;63483;47.384;8.860;2023-05-27T09:40:05;12.30;;;8.63;;
74920;SDS011;63483;47.384;8.860;2023-05-27T09:45:12;13.35;;;9.07;;
74920;SDS011;63483;47.384;8.860;2023-05-27T09:47:40;13.45;;;9.30;;
74920;SDS011;63483;47.384;8.860;2023-05-27T09:50:07;13.27;;;9.30;;
74920;SDS011;63483;47.384;8.860;2023-05-27T09:52:37;15.15;;;9.13;;
74920;SDS011;63483;47.384;8.860;2023-05-27T09:55:05;13.60;;;10.23;;
74920;SDS011;63483;47.384;8.860;2023-05-27T09:57:32;14.57;;;8.77;;
74920;SDS011;63483;47.384;8.860;2023-05-27T09:59:59;15.38;;;9.30;;
74920;SDS011;63483;47.384;8.860;2023-05-27T10:02:25;15.40;;;9.40;;
74920;SDS011;63483;47.384;8.860;2023-05-27T10:04:50;14.10;;;9.37;;
74920;SDS011;63483;47.384;8.860;2023-05-27T10:07:16;16.90;;;9.20;;
74920;SDS011;63483;47.384;8.860;2023-05-27T10:09:45;13.55;;;9.63;;
74920;SDS011;63483;47.384;8.860;2023-05-27T10:12:11;13.77;;;9.07;;
74920;SDS011;63483;47.384;8.860;2023-05-27T10:14:39;12.52;;;9.52;;
74920;SDS011;63483;47.384;8.860;2023-05-27T10:17:05;11.90;;;8.20;;
74920;SDS011;63483;47.384;8.860;2023-05-27T10:19:30;11.67;;;8.33;;
74920;SDS011;63483;47.384;8.860;2023-05-27T10:21:56;14.03;;;8.23;;
74920;SDS011;63483;47.384;8.860;2023-05-27T10:24:32;12.30;;;8.77;;
74920;SDS011;63483;47.384;8.860;2023-05-27T10:26:59;11.52;;;7.95;;
74920;SDS011;63483;47.384;8.860;2023-05-27T10:29:36;15.02;;;9.07;;
74920;SDS011;63483;47.384;8.860;2023-05-27T10:32:05;13.20;;;8.43;;
74920;SDS011;63483;47.384;8.860;2023-05-27T10:34:37;12.13;;;9.07;;
74920;SDS011;63483;47.384;8.860;2023-05-27T10:37:06;14.35;;;8.50;;
74920;SDS011;63483;47.384;8.860;2023-05-27T10:39:32;12.45;;;8.98;;
74920;SDS011;63483;47.384;8.860;2023-05-27T10:41:58;14.10;;;9.17;;
74920;SDS011;63483;47.384;8.860;2023-05-27T10:47:03;17.10;;;8.55;;
74920;SDS011;63483;47.384;8.860;2023-05-27T10:49:45;13.13;;;8.98;;
74920;SDS011;63483;47.384;8.860;2023-05-27T10:52:12;12.85;;;9.15;;
74920;SDS011;63483;47.384;8.860;2023-05-27T10:54:39;11.03;;;7.60;;
74920;SDS011;63483;47.384;8.860;2023-05-27T10:57:05;13.75;;;9.77;;
74920;SDS011;63483;47.384;8.860;2023-05-27T10:59:45;14.18;;;9.32;;
74920;SDS011;63483;47.384;8.860;2023-05-27T11:02:14;12.25;;;9.20;;
74920;SDS011;63483;47.384;8.860;2023-05-27T11:04:40;12.13;;;8.60;;
74920;SDS011;63483;47.384;8.860;2023-05-27T11:07:05;13.37;;;8.97;;
74920;SDS011;63483;47.384;8.860;2023-05-27T11:09:54;11.70;;;8.30;;
74920;SDS011;63483;47.384;8.860;2023-05-27T11:12:20;13.90;;;8.35;;
74920;SDS011;63483;47.384;8.860;2023-05-27T11:14:50;13.52;;;9.32;;
74920;SDS011;63483;47.384;8.860;2023-05-27T11:17:17;12.35;;;8.48;;
74920;SDS011;63483;47.384;8.860;2023-05-27T11:19:43;11.20;;;8.73;;
74920;SDS011;63483;47.384;8.860;2023-05-27T11:22:11;10.57;;;7.97;;
74920;SDS011;63483;47.384;8.860;2023-05-27T11:24:37;12.15;;;7.53;;
74920;SDS011;63483;47.384;8.860;2023-05-27T11:27:13;12.50;;;7.93;;
74920;SDS011;63483;47.384;8.860;2023-05-27T11:29:47;12.23;;;8.97;;
74920;SDS011;63483;47.384;8.860;2023-05-27T11:32:15;12.60;;;8.20;;
74920;SDS011;63483;47.384;8.860;2023-05-27T11:34:45;13.23;;;8.50;;
74920;SDS011;63483;47.384;8.860;2023-05-27T11:37:12;11.07;;;8.00;;
74920;SDS011;63483;47.384;8.860;2023-05-27T11:39:48;12.05;;;7.50;;
74920;SDS011;63483;47.384;8.860;2023-05-27T11:42:19;13.70;;;8.90;;
74920;SDS011;63483;47.384;8.860;2023-05-27T11:44:49;11.27;;;7.93;;
74920;SDS011;63483;47.384;8.860;2023-05-27T11:47:18;11.05;;;8.25;;
74920;SDS011;63483;47.384;8.860;2023-05-27T11:49:43;10.33;;;8.03;;
74920;SDS011;63483;47.384;8.860;2023-05-27T11:52:10;11.57;;;8.13;;
74920;SDS011;63483;47.384;8.860;2023-05-27T11:54:37;11.57;;;7.75;;
74920;SDS011;63483;47.384;8.860;2023-05-27T11:57:03;11.02;;;7.70;;
74920;SDS011;63483;47.384;8.860;2023-05-27T11:59:31;15.70;;;8.63;;
74920;SDS011;63483;47.384;8.860;2023-05-27T12:01:58;10.50;;;7.65;;
74920;SDS011;63483;47.384;8.860;2023-05-27T12:04:23;12.63;;;8.70;;
74920;SDS011;63483;47.384;8.860;2023-05-27T12:06:50;10.77;;;7.60;;
74920;SDS011;63483;47.384;8.860;2023-05-27T12:09:20;10.87;;;7.00;;
74920;SDS011;63483;47.384;8.860;2023-05-27T12:11:45;10.60;;;7.18;;
74920;SDS011;63483;47.384;8.860;2023-05-27T12:14:10;9.20;;;6.40;;
74920;SDS011;63483;47.384;8.860;2023-05-27T12:16:41;8.85;;;7.18;;
74920;SDS011;63483;47.384;8.860;2023-05-27T12:19:08;12.80;;;7.45;;
74920;SDS011;63483;47.384;8.860;2023-05-27T12:21:38;11.68;;;7.03;;
74920;SDS011;63483;47.384;8.860;2023-05-27T12:24:06;9.57;;;6.60;;
74920;SDS011;63483;47.384;8.860;2023-05-27T12:26:39;10.60;;;6.80;;
74920;SDS011;63483;47.384;8.860;2023-05-27T12:29:05;10.73;;;6.82;;
74920;SDS011;63483;47.384;8.860;2023-05-27T12:31:33;9.27;;;6.40;;
74920;SDS011;63483;47.384;8.860;2023-05-27T12:34:00;11.13;;;7.30;;
74920;SDS011;63483;47.384;8.860;2023-05-27T12:36:27;10.00;;;6.72;;
74920;SDS011;63483;47.384;8.860;2023-05-27T12:38:54;11.57;;;6.88;;
74920;SDS011;63483;47.384;8.860;2023-05-27T12:41:19;11.25;;;7.05;;
74920;SDS011;63483;47.384;8.860;2023-05-27T12:43:45;8.90;;;6.30;;
74920;SDS011;63483;47.384;8.860;2023-05-27T12:46:11;11.07;;;7.03;;
74920;SDS011;63483;47.384;8.860;2023-05-27T12:48:36;9.97;;;6.67;;
74920;SDS011;63483;47.384;8.860;2023-05-27T12:51:01;11.47;;;6.70;;
74920;SDS011;63483;47.384;8.860;2023-05-27T12:53:28;8.65;;;6.38;;
74920;SDS011;63483;47.384;8.860;2023-05-27T12:55:53;10.17;;;6.37;;
74920;SDS011;63483;47.384;8.860;2023-05-27T12:58:18;10.53;;;6.70;;
74920;SDS011;63483;47.384;8.860;2023-05-27T13:00:44;11.17;;;6.97;;
74920;SDS011;63483;47.384;8.860;2023-05-27T13:03:10;8.70;;;6.47;;
74920;SDS011;63483;47.384;8.860;2023-05-27T13:05:35;8.83;;;6.27;;
74920;SDS011;63483;47.384;8.860;2023-05-27T13:08:01;7.43;;;6.10;;
74920;SDS011;63483;47.384;8.860;2023-05-27T13:10:29;9.48;;;5.22;;
74920;SDS011;63483;47.384;8.860;2023-05-27T13:12:55;10.52;;;6.10;;
74920;SDS011;63483;47.384;8.860;2023-05-27T13:15:21;8.82;;;6.70;;
74920;SDS011;63483;47.384;8.860;2023-05-27T13:17:49;11.67;;;7.10;;
74920;SDS011;63483;47.384;8.860;2023-05-27T13:20:16;9.27;;;7.20;;
74920;SDS011;63483;47.384;8.860;2023-05-27T13:22:42;9.68;;;6.65;;
74920;SDS011;63483;47.384;8.860;2023-05-27T13:25:08;8.63;;;6.43;;
74920;SDS011;63483;47.384;8.860;2023-05-27T13:27:34;9.20;;;6.90;;
74920;SDS011;63483;47.384;8.860;2023-05-27T13:29:59;10.55;;;6.70;;
74920;SDS011;63483;47.384;8.860;2023-05-27T13:32:25;9.80;;;6.67;;
74920;SDS011;63483;47.384;8.860;2023-05-27T13:34:51;8.83;;;6.97;;
74920;SDS011;63483;47.384;8.860;2023-05-27T13:37:16;10.15;;;7.00;;
74920;SDS011;63483;47.384;8.860;2023-05-27T13:39:43;10.53;;;7.00;;
74920;SDS011;63483;47.384;8.860;2023-05-27T13:42:09;9.73;;;6.30;;
74920;SDS011;63483;47.384;8.860;2023-05-27T13:44:35;9.67;;;6.23;;
74920;SDS011;63483;47.384;8.860;2023-05-27T13:47:00;8.73;;;5.95;;
74920;SDS011;63483;47.384;8.860;2023-05-27T13:49:26;9.90;;;6.23;;
74920;SDS011;63483;47.384;8.860;2023-05-27T13:51:51;8.17;;;5.77;;
74920;SDS011;63483;47.384;8.860;2023-05-27T13:54:16;8.47;;;5.57;;
74920;SDS011;63483;47.384;8.860;2023-05-27T13:56:42;8.90;;;6.00;;
74920;SDS011;63483;47.384;8.860;2023-05-27T13:59:08;7.78;;;6.30;;
74920;SDS011;63483;47.384;8.860;2023-05-27T14:01:34;11.83;;;6.10;;
74920;SDS011;63483;47.384;8.860;2023-05-27T14:04:00;9.17;;;6.57;;
74920;SDS011;63483;47.384;8.860;2023-05-27T14:06:25;9.50;;;5.93;;
74920;SDS011;63483;47.384;8.860;2023-05-27T14:08:50;9.07;;;5.80;;
74920;SDS011;63483;47.384;8.860;2023-05-27T14:11:17;8.27;;;5.95;;
74920;SDS011;63483;47.384;8.860;2023-05-27T14:13:42;8.40;;;5.90;;
74920;SDS011;63483;47.384;8.860;2023-05-27T14:16:08;9.45;;;5.47;;
74920;SDS011;63483;47.384;8.860;2023-05-27T14:18:33;8.27;;;5.43;;
74920;SDS011;63483;47.384;8.860;2023-05-27T14:21:00;9.77;;;5.70;;
74920;SDS011;63483;47.384;8.860;2023-05-27T14:23:26;8.15;;;6.15;;
74920;SDS011;63483;47.384;8.860;2023-05-27T14:25:51;8.83;;;6.03;;
74920;SDS011;63483;47.384;8.860;2023-05-27T14:28:17;7.63;;;5.77;;
74920;SDS011;63483;47.384;8.860;2023-05-27T14:30:42;9.63;;;6.13;;
74920;SDS011;63483;47.384;8.860;2023-05-27T14:33:08;10.05;;;5.97;;
74920;SDS011;63483;47.384;8.860;2023-05-27T14:35:37;10.40;;;5.60;;
74920;SDS011;63483;47.384;8.860;2023-05-27T14:38:03;9.50;;;5.45;;
74920;SDS011;63483;47.384;8.860;2023-05-27T14:40:29;9.18;;;6.18;;
74920;SDS011;63483;47.384;8.860;2023-05-27T14:42:55;9.45;;;5.80;;
74920;SDS011;63483;47.384;8.860;2023-05-27T14:45:21;9.23;;;6.03;;
74920;SDS011;63483;47.384;8.860;2023-05-27T14:47:47;11.00;;;5.10;;
74920;SDS011;63483;47.384;8.860;2023-05-27T14:50:16;10.27;;;6.00;;